createdAt,value
2022-09-02T00:00:20.499Z,99352.00
2022-09-02T00:03:09.535Z,99349.60
2022-09-02T00:05:47.262Z,99350.40
2022-09-02T00:08:23.203Z,99345.40
2022-09-02T00:11:01.297Z,99347.80
2022-09-02T00:13:38.527Z,99353.20
2022-09-02T00:16:15.250Z,99353.40
2022-09-02T00:18:51.924Z,99354.60
2022-09-02T00:21:28.416Z,99353.40
2022-09-02T00:24:05.984Z,99355.80
2022-09-02T00:26:41.894Z,99354.00
2022-09-02T00:29:18.540Z,99354.20
2022-09-02T00:31:55.035Z,99352.20
2022-09-02T00:34:31.276Z,99353.40
2022-09-02T00:37:07.692Z,99357.60
2022-09-02T00:39:44.211Z,99349.40
2022-09-02T00:42:20.384Z,99342.20
2022-09-02T00:44:57.259Z,99343.20
2022-09-02T00:47:33.910Z,99344.40
2022-09-02T00:50:17.957Z,99339.00
2022-09-02T00:53:00.440Z,99340.00
2022-09-02T00:55:42.350Z,99336.40
2022-09-02T00:58:23.437Z,99338.80
2022-09-02T01:01:02.628Z,99336.40
2022-09-02T01:03:40.420Z,99338.00
2022-09-02T01:06:19.403Z,99338.00
2022-09-02T01:09:03.260Z,99333.40
2022-09-02T01:11:48.099Z,99332.80
2022-09-02T01:14:28.509Z,99332.80
2022-09-02T01:17:08.058Z,99334.00
2022-09-02T01:19:50.159Z,99333.60
2022-09-02T01:22:31.336Z,99334.20
2022-09-02T01:25:16.317Z,99335.60
2022-09-02T01:27:52.990Z,99339.20
2022-09-02T01:30:31.852Z,99336.40
2022-09-02T01:33:08.439Z,99339.80
2022-09-02T01:35:45.491Z,99336.40
2022-09-02T01:38:22.178Z,99337.00
2022-09-02T01:40:58.302Z,99344.20
2022-09-02T01:43:34.602Z,99343.60
2022-09-02T01:46:10.872Z,99340.40
2022-09-02T01:48:46.988Z,99342.20
2022-09-02T01:51:24.454Z,99340.60
2022-09-02T01:54:00.801Z,99341.20
2022-09-02T01:56:37.124Z,99341.40
2022-09-02T01:59:18.026Z,99337.80
2022-09-02T02:01:54.071Z,99337.20
2022-09-02T02:04:30.304Z,99338.00
2022-09-02T02:07:08.402Z,99340.00
2022-09-02T02:09:46.140Z,99339.20
2022-09-02T02:12:24.886Z,99337.00
2022-09-02T02:15:08.148Z,99339.20
2022-09-02T02:17:45.110Z,99338.60
2022-09-02T02:20:23.433Z,99343.60
2022-09-02T02:22:59.547Z,99337.60
2022-09-02T02:25:36.044Z,99337.00
2022-09-02T02:28:12.319Z,99339.60
2022-09-02T02:30:48.488Z,99338.80
2022-09-02T02:33:30.564Z,99334.40
2022-09-02T02:36:14.979Z,99337.40
2022-09-02T02:38:51.156Z,99330.40
2022-09-02T02:41:27.241Z,99325.80
2022-09-02T02:44:04.034Z,99325.60
2022-09-02T02:46:42.611Z,99319.80
2022-09-02T02:49:19.124Z,99318.00
2022-09-02T02:51:55.601Z,99318.20
2022-09-02T02:54:35.090Z,99319.80
2022-09-02T02:57:13.011Z,99315.20
2022-09-02T02:59:48.908Z,99316.40
2022-09-02T03:02:25.130Z,99310.60
2022-09-02T03:05:01.673Z,99309.20
2022-09-02T03:07:39.003Z,99311.20
2022-09-02T03:10:19.639Z,99313.20
2022-09-02T03:12:55.951Z,99313.20
2022-09-02T03:15:32.312Z,99310.80
2022-09-02T03:18:09.254Z,99317.40
2022-09-02T03:20:46.823Z,99314.80
2022-09-02T03:23:22.978Z,99315.60
2022-09-02T03:25:59.306Z,99316.80
2022-09-02T03:28:40.142Z,99319.20
2022-09-02T03:31:24.103Z,99315.40
2022-09-02T03:34:00.886Z,99310.00
2022-09-02T03:36:44.271Z,99314.80
2022-09-02T03:39:23.149Z,99317.00
2022-09-02T03:41:59.145Z,99319.80
2022-09-02T03:44:37.436Z,99319.80
2022-09-02T03:47:15.313Z,99319.60
2022-09-02T03:49:51.967Z,99321.40
2022-09-02T03:52:28.287Z,99322.80
2022-09-02T03:55:04.467Z,99326.80
2022-09-02T03:57:42.879Z,99325.60
2022-09-02T04:00:25.252Z,99329.60
2022-09-02T04:03:03.923Z,99329.20
2022-09-02T04:05:40.225Z,99335.20
2022-09-02T04:08:17.671Z,99338.00
2022-09-02T04:10:56.455Z,99338.00
2022-09-02T04:13:32.544Z,99337.80
2022-09-02T04:16:16.158Z,99341.00
2022-09-02T04:18:52.232Z,99343.60
2022-09-02T04:21:29.025Z,99345.60
2022-09-02T04:24:06.553Z,99343.40
2022-09-02T04:26:45.219Z,99345.80
2022-09-02T04:29:24.299Z,99350.40
2022-09-02T04:32:00.975Z,99357.40
2022-09-02T04:34:37.073Z,99353.40
2022-09-02T04:37:14.690Z,99359.20
2022-09-02T04:39:51.137Z,99354.00
2022-09-02T04:42:27.275Z,99362.60
2022-09-02T04:45:03.900Z,99362.60
2022-09-02T04:47:40.987Z,99361.00
2022-09-02T04:50:17.373Z,99361.80
2022-09-02T04:53:07.076Z,99360.20
2022-09-02T04:55:45.200Z,99362.20
2022-09-02T04:58:21.444Z,99370.60
2022-09-02T05:00:57.898Z,99370.00
2022-09-02T05:03:35.904Z,99372.00
2022-09-02T05:06:16.362Z,99368.80
2022-09-02T05:08:52.526Z,99373.40
2022-09-02T05:11:33.034Z,99369.80
2022-09-02T05:14:10.616Z,99372.20
2022-09-02T05:16:48.350Z,99369.20
2022-09-02T05:19:30.135Z,99370.60
2022-09-02T05:22:07.718Z,99369.20
2022-09-02T05:24:47.430Z,99371.20
2022-09-02T05:27:23.640Z,99373.60
2022-09-02T05:30:03.506Z,99376.20
2022-09-02T05:32:41.448Z,99372.60
2022-09-02T05:35:18.713Z,99373.20
2022-09-02T05:38:00.101Z,99371.40
2022-09-02T05:40:41.599Z,99371.80
2022-09-02T05:43:18.276Z,99375.20
2022-09-02T05:45:54.716Z,99376.00
2022-09-02T05:48:48.384Z,99378.60
2022-09-02T05:51:24.871Z,99377.60
2022-09-02T05:54:04.764Z,99381.80
2022-09-02T05:56:45.355Z,99379.20
2022-09-02T05:59:22.296Z,99374.00
2022-09-02T06:01:59.934Z,99377.20
2022-09-02T06:04:40.631Z,99381.00
2022-09-02T06:07:21.078Z,99383.40
2022-09-02T06:09:57.443Z,99383.60
2022-09-02T06:12:37.398Z,99387.20
2022-09-02T06:15:17.656Z,99381.60
2022-09-02T06:17:53.699Z,99384.80
2022-09-02T06:20:32.680Z,99386.00
2022-09-02T06:23:10.147Z,99386.20
2022-09-02T06:25:53.531Z,99388.40
2022-09-02T06:28:29.990Z,99394.40
2022-09-02T06:31:13.322Z,99392.80
2022-09-02T06:33:53.133Z,99395.20
2022-09-02T06:36:32.623Z,99392.20
2022-09-02T06:39:11.597Z,99396.80
2022-09-02T06:41:50.344Z,99399.20
2022-09-02T06:44:27.756Z,99401.20
2022-09-02T06:47:04.945Z,99404.20
2022-09-02T06:49:41.127Z,99402.60
2022-09-02T06:52:18.932Z,99407.40
2022-09-02T06:54:57.217Z,99410.60
2022-09-02T06:57:35.453Z,99412.60
2022-09-02T07:00:18.589Z,99414.20
2022-09-02T07:03:08.418Z,99413.60
2022-09-02T07:05:45.090Z,99414.20
2022-09-02T07:08:21.183Z,99414.40
2022-09-02T07:10:57.512Z,99410.40
2022-09-02T07:13:37.559Z,99409.20
2022-09-02T07:16:18.448Z,99409.40
2022-09-02T07:19:05.583Z,99410.00
2022-09-02T07:21:44.160Z,99409.60
2022-09-02T07:24:22.496Z,99407.60
2022-09-02T07:27:00.078Z,99415.00
2022-09-02T07:29:38.321Z,99414.20
2022-09-02T07:32:14.688Z,99411.80
2022-09-02T07:34:52.131Z,99410.00
2022-09-02T07:37:28.567Z,99412.00
2022-09-02T07:40:08.038Z,99417.00
2022-09-02T07:42:44.555Z,99417.00
2022-09-02T07:45:21.282Z,99412.60
2022-09-02T07:47:57.743Z,99413.40
2022-09-02T07:50:34.269Z,99417.40
2022-09-02T07:53:14.030Z,99416.40
2022-09-02T07:55:53.573Z,99418.20
2022-09-02T07:58:32.344Z,99416.00
2022-09-02T08:01:10.461Z,99413.60
2022-09-02T08:03:49.286Z,99410.00
2022-09-02T08:06:29.717Z,99409.00
2022-09-02T08:09:12.848Z,99409.00
2022-09-02T08:11:53.461Z,99411.40
2022-09-02T08:14:31.620Z,99409.80
2022-09-02T08:17:08.678Z,99409.40
2022-09-02T08:19:45.683Z,99410.80
2022-09-02T08:22:21.924Z,99406.40
2022-09-02T08:24:58.762Z,99408.00
2022-09-02T08:27:34.686Z,99413.00
2022-09-02T08:30:13.782Z,99411.80
2022-09-02T08:32:49.649Z,99405.60
2022-09-02T08:35:26.064Z,99401.60
2022-09-02T08:38:03.705Z,99408.60
2022-09-02T08:40:45.053Z,99403.00
2022-09-02T08:43:38.525Z,99400.20
2022-09-02T08:46:18.606Z,99398.60
2022-09-02T08:49:00.453Z,99397.60
2022-09-02T08:51:52.879Z,99397.40
2022-09-02T08:54:42.399Z,99397.00
2022-09-02T08:57:18.637Z,99391.60
2022-09-02T08:59:55.577Z,99389.80
2022-09-02T09:02:47.556Z,99385.80
2022-09-02T09:05:37.313Z,99380.80
2022-09-02T09:08:29.288Z,99377.00
2022-09-02T09:11:21.032Z,99391.00
2022-09-02T09:14:28.846Z,99375.40
2022-09-02T09:17:17.515Z,99374.20
2022-09-02T09:20:00.909Z,99373.40
2022-09-02T09:22:40.498Z,99375.20
2022-09-02T09:25:20.365Z,99366.40
2022-09-02T09:27:56.637Z,99365.20
2022-09-02T09:30:33.028Z,99372.80
2022-09-02T09:33:16.135Z,99357.60
2022-09-02T09:35:58.881Z,99363.60
2022-09-02T09:38:39.108Z,99360.40
2022-09-02T09:41:25.826Z,99358.60
2022-09-02T09:44:01.681Z,99363.40
2022-09-02T09:46:37.681Z,99367.40
2022-09-02T09:49:26.790Z,99360.60
2022-09-02T09:52:04.297Z,99352.60
2022-09-02T09:54:41.726Z,99351.20
2022-09-02T09:57:25.318Z,99347.80
2022-09-02T10:00:28.041Z,99346.80
2022-09-02T10:03:09.432Z,99351.60
2022-09-02T10:05:45.635Z,99337.40
2022-09-02T10:08:31.465Z,99337.00
2022-09-02T10:11:26.454Z,99334.60
2022-09-02T10:14:07.044Z,99335.80
2022-09-02T10:17:01.572Z,99335.80
2022-09-02T10:19:54.517Z,99327.40
2022-09-02T10:22:59.254Z,99331.20
2022-09-02T10:25:57.875Z,99334.80
2022-09-02T10:29:09.062Z,99333.40
2022-09-02T10:32:00.791Z,99325.80
2022-09-02T10:34:49.887Z,99324.80
2022-09-02T10:37:36.251Z,99330.00
2022-09-02T10:40:19.595Z,99321.60
2022-09-02T10:43:09.240Z,99318.80
2022-09-02T10:45:51.984Z,99317.20
2022-09-02T10:48:49.918Z,99311.40
2022-09-02T10:51:41.870Z,99315.40
2022-09-02T10:54:48.751Z,99312.00
2022-09-02T10:57:33.601Z,99306.60
2022-09-02T11:00:20.364Z,99312.00
2022-09-02T11:03:09.299Z,99322.60
2022-09-02T11:05:53.329Z,99321.20
2022-09-02T11:08:40.269Z,99315.60
2022-09-02T11:11:21.798Z,99319.00
2022-09-02T11:14:17.399Z,99317.00
2022-09-02T11:17:06.610Z,99311.40
2022-09-02T11:19:57.107Z,99303.80
2022-09-02T11:22:42.734Z,99308.00
2022-09-02T11:25:25.531Z,99308.00
2022-09-02T11:28:22.688Z,99311.20
2022-09-02T11:31:08.591Z,99306.00
2022-09-02T11:34:00.027Z,99298.60
2022-09-02T11:36:42.342Z,99305.60
2022-09-02T11:39:49.544Z,99308.60
2022-09-02T11:42:50.427Z,99298.40
2022-09-02T11:46:21.028Z,99296.00
2022-09-02T11:49:22.504Z,99287.00
2022-09-02T11:52:25.518Z,99283.20
2022-09-02T11:55:20.590Z,99280.40
2022-09-02T11:58:00.252Z,99277.00
2022-09-02T12:00:59.796Z,99280.40
2022-09-02T12:03:55.980Z,99282.00
2022-09-02T12:06:34.658Z,99287.60
2022-09-02T12:09:35.718Z,99282.60
2022-09-02T12:12:32.939Z,99274.40
2022-09-02T12:15:20.034Z,99282.60
2022-09-02T12:18:31.190Z,99280.00
2022-09-02T12:21:21.866Z,99276.00
2022-09-02T12:24:25.543Z,99275.40
2022-09-02T12:27:30.458Z,99275.20
2022-09-02T12:30:12.758Z,99270.00
2022-09-02T12:33:14.640Z,99268.00
2022-09-02T12:36:01.145Z,99264.00
2022-09-02T12:38:44.528Z,99264.60
2022-09-02T12:41:35.261Z,99261.60
2022-09-02T12:44:27.895Z,99253.00
2022-09-02T12:47:15.664Z,99245.60
2022-09-02T12:50:07.875Z,99245.80
2022-09-02T12:52:55.085Z,99244.80
2022-09-02T12:55:35.651Z,99245.40
2022-09-02T12:58:21.445Z,99243.80
2022-09-02T13:01:18.592Z,99245.40
2022-09-02T13:04:21.452Z,99239.20
2022-09-02T13:07:37.530Z,99237.60
2022-09-02T13:10:56.202Z,99239.80
2022-09-02T13:14:19.302Z,99239.20
2022-09-02T13:17:37.653Z,99232.60
2022-09-02T13:20:55.975Z,99234.60
2022-09-02T13:24:50.871Z,99234.40
2022-09-02T13:28:12.257Z,99239.00
2022-09-02T13:31:23.628Z,99228.80
2022-09-02T13:34:08.433Z,99222.80
2022-09-02T13:36:48.545Z,99226.20
2022-09-02T13:39:28.609Z,99224.80
2022-09-02T13:42:23.478Z,99225.00
2022-09-02T13:48:09.620Z,99228.20
2022-09-02T13:50:50.935Z,99227.20
2022-09-02T13:53:58.809Z,99224.00
2022-09-02T13:56:33.756Z,99217.20
2022-09-02T13:59:10.307Z,99214.00
2022-09-02T14:01:46.496Z,99205.20
2022-09-02T14:04:24.622Z,99204.20
2022-09-02T14:07:01.445Z,99205.80
2022-09-02T14:09:39.900Z,99205.40
2022-09-02T14:12:16.335Z,99207.20
2022-09-02T14:14:53.109Z,99207.60
2022-09-02T14:17:30.901Z,99205.00
2022-09-02T14:20:27.436Z,99208.40
2022-09-02T14:23:04.269Z,99211.20
2022-09-02T14:25:53.167Z,99213.40
2022-09-02T14:28:32.949Z,99207.40
2022-09-02T14:31:24.862Z,99205.00
2022-09-02T14:34:02.478Z,99198.20
2022-09-02T14:36:42.966Z,99202.20
2022-09-02T14:39:20.936Z,99205.80
2022-09-02T14:41:58.996Z,99210.40
2022-09-02T14:44:40.703Z,99209.80
2022-09-02T14:47:22.797Z,99213.40
2022-09-02T14:49:59.559Z,99204.80
2022-09-02T14:52:38.732Z,99202.60
2022-09-02T14:55:52.629Z,99193.80
2022-09-02T14:58:31.933Z,99192.00
2022-09-02T15:01:09.690Z,99192.20
2022-09-02T15:03:47.427Z,99190.40
2022-09-02T15:06:23.367Z,99188.00
2022-09-02T15:08:59.415Z,99196.60
2022-09-02T15:11:35.911Z,99196.20
2022-09-02T15:14:12.861Z,99194.80
2022-09-02T15:16:49.421Z,99196.00
2022-09-02T15:19:25.491Z,99194.80
2022-09-02T15:22:01.458Z,99187.40
2022-09-02T15:24:38.964Z,99190.20
2022-09-02T15:27:15.404Z,99186.80
2022-09-02T15:29:53.561Z,99184.60
2022-09-02T15:32:31.688Z,99183.80
2022-09-02T15:35:09.527Z,99184.40
2022-09-02T15:37:45.569Z,99184.00
2022-09-02T15:40:21.698Z,99182.00
2022-09-02T15:42:57.625Z,99186.80
2022-09-02T15:45:35.338Z,99183.80
2022-09-02T15:48:11.348Z,99183.00
2022-09-02T15:50:47.869Z,99186.60
2022-09-02T15:53:24.010Z,99190.60
2022-09-02T15:56:00.163Z,99186.00
2022-09-02T15:58:36.133Z,99186.80
2022-09-02T16:01:12.613Z,99188.60
2022-09-02T16:03:48.519Z,99184.60
2022-09-02T16:06:25.198Z,99188.20
2022-09-02T16:09:01.868Z,99185.00
2022-09-02T16:12:13.167Z,99180.00
2022-09-02T16:14:51.238Z,99182.00
2022-09-02T16:17:27.233Z,99182.80
2022-09-02T16:20:03.208Z,99177.80
2022-09-02T16:22:39.197Z,99176.80
2022-09-02T16:25:15.808Z,99176.00
2022-09-02T16:27:55.991Z,99172.60
2022-09-02T16:30:32.335Z,99175.40
2022-09-02T16:33:08.638Z,99178.60
2022-09-02T16:35:45.498Z,99174.80
2022-09-02T16:38:21.655Z,99176.20
2022-09-02T16:40:59.545Z,99174.60
2022-09-02T16:43:36.500Z,99177.20
2022-09-02T16:46:13.379Z,99175.20
2022-09-02T16:48:50.294Z,99179.00
2022-09-02T16:51:27.827Z,99177.60
2022-09-02T16:54:06.562Z,99177.20
2022-09-02T16:56:43.251Z,99172.60
2022-09-02T16:59:20.224Z,99169.20
2022-09-02T17:01:56.329Z,99164.80
2022-09-02T17:04:32.284Z,99170.20
2022-09-02T17:07:08.280Z,99167.00
2022-09-02T17:09:44.469Z,99165.60
2022-09-02T17:12:20.677Z,99167.40
2022-09-02T17:14:56.778Z,99166.00
2022-09-02T17:17:32.981Z,99167.80
2022-09-02T17:20:13.242Z,99169.00
2022-09-02T17:22:49.699Z,99168.60
2022-09-02T17:25:25.769Z,99167.80
2022-09-02T17:28:04.000Z,99170.60
2022-09-02T17:30:40.983Z,99171.80
2022-09-02T17:33:17.042Z,99173.60
2022-09-02T17:36:04.383Z,99170.20
2022-09-02T17:38:40.506Z,99172.40
2022-09-02T17:41:35.327Z,99176.00
2022-09-02T17:44:12.185Z,99176.20
2022-09-02T17:46:49.203Z,99175.60
2022-09-02T17:49:25.787Z,99178.00
2022-09-02T17:52:01.739Z,99180.00
2022-09-02T17:54:38.980Z,99180.80
2022-09-02T17:57:31.057Z,99182.00
2022-09-02T18:00:18.810Z,99179.00
2022-09-02T18:03:32.335Z,99180.40
2022-09-02T18:06:21.066Z,99182.60
2022-09-02T18:09:03.713Z,99183.00
2022-09-02T18:11:41.122Z,99190.60
2022-09-02T18:14:35.099Z,99189.20
2022-09-02T18:17:32.245Z,99190.80
2022-09-02T18:20:24.169Z,99195.20
2022-09-02T18:23:26.012Z,99190.80
2022-09-02T18:26:17.731Z,99185.80
2022-09-02T18:29:06.436Z,99188.40
2022-09-02T18:31:55.234Z,99189.80
2022-09-02T18:34:54.034Z,99193.40
2022-09-02T18:37:54.923Z,99191.20
2022-09-02T18:40:44.382Z,99195.80
2022-09-02T18:43:34.049Z,99194.60
2022-09-02T18:46:16.013Z,99196.60
2022-09-02T18:48:58.053Z,99194.40
2022-09-02T18:51:43.280Z,99193.20
2022-09-02T18:54:26.758Z,99194.00
2022-09-02T18:57:08.864Z,99192.40
2022-09-02T18:59:54.822Z,99193.40
2022-09-02T19:02:43.647Z,99190.20
2022-09-02T19:05:28.107Z,99193.60
2022-09-02T19:08:27.820Z,99189.80
2022-09-02T19:11:09.100Z,99191.60
2022-09-02T19:13:55.559Z,99188.00
2022-09-02T19:16:37.388Z,99188.40
2022-09-02T19:19:12.086Z,99188.80
2022-09-02T19:21:55.383Z,99189.60
2022-09-02T19:24:38.942Z,99190.20
2022-09-02T19:27:22.744Z,99189.20
2022-09-02T19:30:06.648Z,99192.00
2022-09-02T19:32:47.674Z,99190.20
2022-09-02T19:35:29.399Z,99192.60
2022-09-02T19:38:04.517Z,99194.60
2022-09-02T19:40:40.837Z,99197.20
2022-09-02T19:43:18.613Z,99200.40
2022-09-02T19:45:56.162Z,99200.20
2022-09-02T19:48:36.275Z,99204.00
2022-09-02T19:51:18.034Z,99208.40
2022-09-02T19:53:53.469Z,99207.20
2022-09-02T19:56:31.546Z,99205.80
2022-09-02T19:59:09.389Z,99206.80
2022-09-02T20:01:47.141Z,99206.40
2022-09-02T20:04:23.978Z,99206.00
2022-09-02T20:07:02.308Z,99205.40
2022-09-02T20:09:38.546Z,99206.80
2022-09-02T20:12:16.051Z,99209.40
2022-09-02T20:14:52.399Z,99208.80
2022-09-02T20:17:31.142Z,99205.20
2022-09-02T20:20:16.592Z,99205.80
2022-09-02T20:22:57.598Z,99207.80
2022-09-02T20:25:50.985Z,99205.00
2022-09-02T20:28:42.681Z,99201.20
2022-09-02T20:31:45.830Z,99202.20
2022-09-02T20:34:57.107Z,99200.40
2022-09-02T20:37:52.819Z,99204.40
2022-09-02T20:40:47.158Z,99201.80
2022-09-02T20:44:13.258Z,99201.40
2022-09-02T20:47:26.644Z,99206.20
2022-09-02T20:50:30.842Z,99204.80
2022-09-02T20:53:27.055Z,99200.00
2022-09-02T20:56:22.181Z,99198.20
2022-09-02T20:59:11.676Z,99198.80
2022-09-02T21:01:50.345Z,99203.80
2022-09-02T21:04:41.060Z,99201.20
2022-09-02T21:07:26.183Z,99201.60
2022-09-02T21:10:14.761Z,99203.00
2022-09-02T21:12:57.606Z,99208.40
2022-09-02T21:15:44.238Z,99203.40
2022-09-02T21:18:31.254Z,99203.40
2022-09-02T21:21:18.851Z,99204.00
2022-09-02T21:24:03.082Z,99203.80
2022-09-02T21:26:53.509Z,99204.80
2022-09-02T21:29:43.731Z,99208.40
2022-09-02T21:32:30.318Z,99213.80
2022-09-02T21:35:12.651Z,99215.60
2022-09-02T21:37:52.784Z,99215.60
2022-09-02T21:40:39.999Z,99212.80
2022-09-02T21:43:48.762Z,99209.80
2022-09-02T21:46:42.777Z,99211.20
2022-09-02T21:49:42.964Z,99213.40
2022-09-02T21:52:44.091Z,99211.80
2022-09-02T21:55:43.205Z,99213.60
2022-09-02T21:58:47.364Z,99215.00
2022-09-02T22:01:44.582Z,99211.40
2022-09-02T22:05:04.586Z,99216.60
2022-09-02T22:07:49.214Z,99216.20
2022-09-02T22:10:39.232Z,99215.80
2022-09-02T22:13:15.778Z,99211.80
2022-09-02T22:16:13.286Z,99209.80
2022-09-02T22:19:00.350Z,99207.00
2022-09-02T22:21:47.129Z,99213.00
2022-09-02T22:24:28.686Z,99212.40
2022-09-02T22:27:12.441Z,99208.60
2022-09-02T22:29:59.889Z,99207.60
2022-09-02T22:32:42.196Z,99202.80
2022-09-02T22:35:28.234Z,99205.40
2022-09-02T22:38:16.768Z,99200.60
2022-09-02T22:41:01.999Z,99200.40
2022-09-02T22:43:53.903Z,99194.20
2022-09-02T22:47:02.027Z,99193.80
2022-09-02T22:50:05.531Z,99192.60
2022-09-02T22:52:49.617Z,99193.20
2022-09-02T22:55:49.186Z,99187.80
2022-09-02T22:59:03.638Z,99181.00
2022-09-02T23:02:05.923Z,99181.40
2022-09-02T23:05:37.580Z,99180.00
2022-09-02T23:08:17.538Z,99180.60
2022-09-02T23:11:06.820Z,99181.40
2022-09-02T23:14:09.244Z,99177.00
2022-09-02T23:17:23.599Z,99181.20
2022-09-02T23:20:17.646Z,99178.40
2022-09-02T23:23:15.044Z,99179.80
2022-09-02T23:26:18.853Z,99179.80
2022-09-02T23:29:18.429Z,99180.00
2022-09-02T23:32:29.721Z,99184.60
2022-09-02T23:35:33.777Z,99187.20
2022-09-02T23:38:32.361Z,99184.00
2022-09-02T23:41:13.864Z,99187.00
2022-09-02T23:43:51.083Z,99187.60
2022-09-02T23:46:50.670Z,99188.40
2022-09-02T23:49:41.278Z,99189.80
2022-09-02T23:52:35.792Z,99189.60
2022-09-02T23:55:27.603Z,99191.00
2022-09-02T23:58:28.782Z,99193.60
